Airfield :
LOGIN :

Register | Disclaimer

   EN    FR    IT 

 










Legend :    VFR   Marginal VFR   IFR   Intensive IFR   Very Intensive IFR
Visi :
Ceiling :
>= 8 km
>= 3000ft
5 to 8 km
1000 to 3000 ft
1500m to 5 km
500 to 1000 ft
800 to 1500m
200 to 500 ft
< 800m
< 200 ft
Symbols :   Thunderstorms  Fog  Heavy snow  Heavy precipitations  Wind > 20 kt
SIGMETs :     Misc.  Thunderstorms  Icing  Turbulence  Mountain Waves  Volcanic Ashes






- Airport Elevation : 2026 ft
- IATA code : TOJ


LETO - Madrid Torrejon

CURRENT METAR :
  • 160830Z 06007KT 030V100 9999 BKN030 09/01 Q1017 NOSIG

EXPIRED METARs :
  • 160800Z 07006KT 030V090 9999 FEW020 BKN048 08/00 Q1017 NOSIG
  • 160730Z 05007KT 9999 FEW018 BKN036 08/02 Q1017 NOSIG
  • 160700Z 08005KT 9999 BKN034 08/04 Q1017 NOSIG
  • 160630Z VRB02KT 9999 BKN034 08/06 Q1017 NOSIG
  • 160600Z 15003KT 9999 BKN034 08/06 Q1016 NOSIG

TAF TAF LETO
Valid from the 16 at 06:00 until the 17 at 06:00 UTC


160500Z 1606/1706 VRB05KT 9999 SCT030 TX16/1615Z TN02/1706Z
PROB30
TEMPO 1606/1609 4000 DZRA BKN014
BECMG 1616/1618 03010KT



MET'MAP, your aeronautical weather chart ! - Copyright ORBIFLY December 2007 - Disclaimer

ORBIFLY MET'MAP TEAM :

Programming & Development : Alexandra Zaïnal
Concept & original design : Baudouin d'Aumeries
Assistance for programming : Marc-Olivier Méhu
Technical & hardware support : Manuel Goepfert

Contact : metmap@orbifly.com




SOURCES & CREDITS :

   NOAA